Time;durP1;ratioP1;P1;durP2;ratioP2;P2;SDS_P1;SDS_P2;PMS_P1;PMS_P2;Temp;Humidity;BMP_temperature;BMP_pressure;BME280_temperature;BME280_humidity;BME280_pressure;Samples;Min_cycle;Max_cycle;Signal;HPM_P1;HPM_P2
2022/11/13 00:01:21;;;;;;;29.85;27.40;;;;;;;11.99;59.94;102572.16;5051508;28;20068;-72
2022/11/13 00:03:47;;;;;;;29.88;27.15;;;;;;;11.97;59.83;102576.97;5043211;28;20136;-72
2022/11/13 00:06:14;;;;;;;29.75;27.42;;;;;;;11.97;59.64;102585.09;5040916;28;20525;-72
2022/11/13 00:08:40;;;;;;;27.75;25.75;;;;;;;11.96;59.69;102588.84;5052705;28;20036;-72
2022/11/13 00:11:10;;;;;;;32.00;29.10;;;;;;;11.96;59.82;102580.72;5038954;28;20432;-72
2022/11/13 00:13:35;;;;;;;29.15;26.73;;;;;;;11.96;59.92;102574.47;5033397;28;20112;-72
2022/11/13 00:16:03;;;;;;;30.90;28.42;;;;;;;11.94;59.68;102571.94;5032954;28;20443;-72
2022/11/13 00:18:30;;;;;;;29.80;26.95;;;;;;;11.94;59.77;102574.66;5033542;28;20029;-72
2022/11/13 00:20:57;;;;;;;28.80;26.38;;;;;;;11.94;59.69;102568.41;5046372;28;20382;-73
2022/11/13 00:23:22;;;;;;;29.48;27.23;;;;;;;11.93;59.71;102570.28;5038991;28;20041;-72
2022/11/13 00:25:48;;;;;;;29.55;27.05;;;;;;;11.93;59.80;102569.47;5051509;28;20133;-72
2022/11/13 00:28:13;;;;;;;29.52;26.98;;;;;;;11.91;59.67;102565.06;5051170;28;20045;-72
2022/11/13 00:30:39;;;;;;;28.70;26.42;;;;;;;11.90;59.60;102566.13;5051164;28;20057;-72
2022/11/13 00:33:04;;;;;;;29.77;27.05;;;;;;;11.89;59.68;102561.75;5032969;28;20041;-72
2022/11/13 00:35:31;;;;;;;31.27;28.10;;;;;;;11.89;59.90;102558.19;5033505;28;20453;-72
2022/11/13 00:37:57;;;;;;;29.45;27.02;;;;;;;11.89;59.71;102555.50;5039324;28;20044;-73
2022/11/13 00:40:22;;;;;;;30.45;27.38;;;;;;;11.88;59.66;102545.72;5037283;28;20033;-72
2022/11/13 00:42:48;;;;;;;30.58;27.98;;;;;;;11.86;59.88;102540.50;5044969;28;20098;-72
2022/11/13 00:45:13;;;;;;;32.47;29.67;;;;;;;11.86;59.84;102536.91;5032552;28;20172;-72
2022/11/13 00:47:38;;;;;;;31.73;28.80;;;;;;;11.86;59.61;102539.63;5034338;28;20156;-73
2022/11/13 00:50:04;;;;;;;33.30;30.20;;;;;;;11.85;59.75;102527.97;5052197;28;20123;-72
2022/11/13 00:52:29;;;;;;;30.00;27.48;;;;;;;11.84;59.78;102525.47;5048279;28;20400;-72
2022/11/13 00:54:55;;;;;;;30.35;27.77;;;;;;;11.84;59.68;102525.47;5047032;28;20457;-72
2022/11/13 00:57:20;;;;;;;31.67;28.95;;;;;;;11.84;59.68;102528.16;5050792;28;20029;-72
2022/11/13 00:59:45;;;;;;;30.90;28.30;;;;;;;11.83;59.84;102534.63;5051706;28;20037;-72
2022/11/13 01:02:14;;;;;;;31.08;27.98;;;;;;;11.82;59.78;102535.69;5044463;28;20501;-72
2022/11/13 01:04:40;;;;;;;31.55;28.80;;;;;;;11.81;59.78;102531.28;5058033;28;20037;-72
2022/11/13 01:07:05;;;;;;;31.58;28.90;;;;;;;11.81;59.59;102532.13;5032314;28;20183;-72
2022/11/13 01:09:30;;;;;;;31.20;28.38;;;;;;;11.80;59.58;102518.81;5045825;28;20494;-72
2022/11/13 01:11:56;;;;;;;29.20;26.80;;;;;;;11.79;59.70;102515.28;5034203;28;20049;-72
2022/11/13 01:14:21;;;;;;;31.15;28.65;;;;;;;11.78;59.64;102518.19;5037686;28;20537;-72
2022/11/13 01:16:46;;;;;;;29.45;26.85;;;;;;;11.78;59.67;102516.31;5032895;28;20481;-72
2022/11/13 01:19:13;;;;;;;32.08;29.08;;;;;;;11.76;59.69;102521.09;5032335;28;20080;-72
2022/11/13 01:21:38;;;;;;;29.45;26.83;;;;;;;11.77;59.71;102524.63;5042265;28;20029;-72
2022/11/13 01:24:04;;;;;;;31.02;28.27;;;;;;;11.76;59.30;102521.09;5064633;28;20393;-72
2022/11/13 01:26:30;;;;;;;31.23;28.52;;;;;;;11.74;59.70;102514.22;5036433;28;20115;-72
2022/11/13 01:28:57;;;;;;;30.40;27.90;;;;;;;11.74;59.63;102514.22;5041544;28;20119;-72
2022/11/13 01:31:25;;;;;;;29.45;26.95;;;;;;;11.73;59.66;102516.09;5049760;28;20040;-71
2022/11/13 01:33:52;;;;;;;28.83;26.27;;;;;;;11.73;59.63;102515.25;5051193;28;20373;-71
2022/11/13 01:36:20;;;;;;;29.27;27.08;;;;;;;11.72;59.43;102511.72;5031962;28;20025;-72
2022/11/13 01:38:47;;;;;;;27.65;25.55;;;;;;;11.71;59.64;102501.91;5032027;28;20025;-71
2022/11/13 01:41:18;;;;;;;30.20;27.50;;;;;;;11.70;59.68;102494.84;5031911;28;20029;-72
2022/11/13 01:43:44;;;;;;;27.45;25.23;;;;;;;11.69;59.60;102498.59;5049078;28;20095;-72
2022/11/13 01:46:39;;;;;;;30.08;27.80;;;;;;;11.69;59.50;102491.31;5034198;28;20389;-72
2022/11/13 01:49:07;;;;;;;29.05;26.90;;;;;;;11.68;59.47;102496.94;5029415;28;20040;-75
2022/11/13 01:51:58;;;;;;;27.23;25.05;;;;;;;11.66;59.47;102485.47;5044900;28;20028;-72
2022/11/13 01:54:28;;;;;;;27.67;25.13;;;;;;;11.64;59.52;102482.13;5048088;28;20909;-72
2022/11/13 01:56:55;;;;;;;29.77;27.48;;;;;;;11.64;59.56;102482.13;5042430;28;20099;-72
2022/11/13 01:59:25;;;;;;;29.50;26.98;;;;;;;11.62;59.46;102476.94;5031387;28;20030;-72
2022/11/13 02:01:51;;;;;;;29.05;26.55;;;;;;;11.62;59.66;102481.53;5031996;28;20079;-72
2022/11/13 02:04:17;;;;;;;29.58;27.25;;;;;;;11.61;59.55;102474.44;5044551;28;20043;-73
2022/11/13 02:06:53;;;;;;;28.77;26.25;;;;;;;11.61;59.62;102469.84;5032298;28;20030;-74
2022/11/13 02:09:21;;;;;;;28.63;26.33;;;;;;;11.59;59.43;102460.25;5031780;28;20117;-74
2022/11/13 02:11:47;;;;;;;26.77;24.77;;;;;;;11.59;59.50;102461.13;5030064;28;20036;-74
2022/11/13 02:14:13;;;;;;;28.52;26.25;;;;;;;11.59;59.55;102458.41;5037583;28;20033;-73
2022/11/13 02:16:41;;;;;;;26.88;24.85;;;;;;;11.57;59.42;102457.78;5049625;28;20059;-74
2022/11/13 02:19:15;;;;;;;26.08;23.98;;;;;;;11.57;59.66;102452.38;5036907;28;20064;-75
2022/11/13 02:21:51;;;;;;;27.25;24.95;;;;;;;11.56;59.62;102456.09;5030425;28;20538;-74
2022/11/13 02:24:37;;;;;;;27.30;25.23;;;;;;;11.56;59.44;102452.56;5034885;28;20079;-74
2022/11/13 02:27:10;;;;;;;27.25;25.05;;;;;;;11.54;59.49;102455.50;5036221;28;20053;-74
2022/11/13 02:29:35;;;;;;;27.60;25.58;;;;;;;11.53;59.30;102451.09;5035611;28;20048;-71
2022/11/13 02:32:01;;;;;;;28.15;25.83;;;;;;;11.52;59.55;102435.09;5030256;28;20030;-71
2022/11/13 02:34:26;;;;;;;27.50;25.23;;;;;;;11.52;59.49;102443.22;5032842;28;20040;-71
2022/11/13 02:36:52;;;;;;;26.30;24.13;;;;;;;11.51;59.75;102439.66;5039404;28;20092;-71
2022/11/13 02:39:17;;;;;;;28.05;25.92;;;;;;;11.50;59.46;102440.72;5026285;28;20033;-71
2022/11/13 02:41:42;;;;;;;26.38;24.38;;;;;;;11.48;59.50;102435.50;5042594;28;20095;-72
2022/11/13 02:44:08;;;;;;;25.80;23.90;;;;;;;11.47;59.58;102431.13;5031206;28;20069;-73
2022/11/13 02:46:34;;;;;;;26.05;24.15;;;;;;;11.47;59.51;102424.88;5047773;28;20075;-71
2022/11/13 02:48:59;;;;;;;27.70;25.73;;;;;;;11.46;59.62;102428.63;5050078;28;20386;-71
2022/11/13 02:51:25;;;;;;;28.23;26.02;;;;;;;11.45;59.47;102425.09;5050173;28;20124;-74
2022/11/13 02:53:51;;;;;;;27.23;25.00;;;;;;;11.44;59.36;102420.72;5050713;28;20040;-74
2022/11/13 02:56:16;;;;;;;28.58;26.50;;;;;;;11.44;59.33;102428.00;5048535;28;20041;-74
2022/11/13 02:58:42;;;;;;;28.30;26.48;;;;;;;11.43;59.43;102419.03;5050139;28;20385;-74
2022/11/13 03:01:08;;;;;;;28.15;25.77;;;;;;;11.43;59.47;102418.22;5050380;28;20044;-74
2022/11/13 03:03:33;;;;;;;27.13;24.92;;;;;;;11.41;59.49;102410.28;5049940;28;20037;-74
2022/11/13 03:05:58;;;;;;;25.52;23.40;;;;;;;11.40;59.36;102414.06;5049728;28;20041;-74
2022/11/13 03:08:24;;;;;;;27.70;25.35;;;;;;;11.39;59.19;102407.00;5038054;28;20112;-73
2022/11/13 03:10:53;;;;;;;27.45;25.35;;;;;;;11.38;59.27;102410.72;5031332;28;20033;-74
2022/11/13 03:13:18;;;;;;;27.10;25.00;;;;;;;11.38;59.49;102410.72;5030809;28;20042;-73
2022/11/13 03:15:44;;;;;;;25.70;23.90;;;;;;;11.37;59.30;102395.53;5044292;28;20053;-73
2022/11/13 03:18:10;;;;;;;27.08;24.90;;;;;;;11.36;59.28;102393.84;5037481;28;20031;-74
2022/11/13 03:20:38;;;;;;;25.25;23.45;;;;;;;11.36;59.08;102395.72;5050005;28;20043;-74
2022/11/13 03:23:04;;;;;;;26.17;24.10;;;;;;;11.34;59.20;102392.41;5051357;28;20029;-74
2022/11/13 03:25:29;;;;;;;27.25;25.25;;;;;;;11.34;59.25;102397.81;5053397;28;20070;-74
2022/11/13 03:27:55;;;;;;;26.63;24.48;;;;;;;11.33;59.16;102393.44;5051115;28;20116;-74
2022/11/13 03:30:20;;;;;;;27.08;24.83;;;;;;;11.32;59.32;102383.69;5066563;28;20087;-71
2022/11/13 03:32:45;;;;;;;26.20;24.38;;;;;;;11.30;59.18;102389.28;5037600;28;20799;-71
2022/11/13 03:35:11;;;;;;;25.27;23.48;;;;;;;11.30;59.34;102385.75;5051187;28;20548;-71
2022/11/13 03:37:36;;;;;;;26.15;24.25;;;;;;;11.29;59.31;102375.94;5037694;28;20052;-71
2022/11/13 03:40:02;;;;;;;26.55;24.45;;;;;;;11.27;59.32;102382.41;5034552;28;20390;-71
2022/11/13 03:42:27;;;;;;;26.10;24.17;;;;;;;11.27;59.30;102381.59;5034084;28;20038;-71
2022/11/13 03:44:53;;;;;;;25.73;23.92;;;;;;;11.26;59.25;102379.91;5034003;28;20056;-74
2022/11/13 03:47:18;;;;;;;26.08;24.20;;;;;;;11.24;59.34;102377.44;5036980;28;20064;-73
2022/11/13 03:49:43;;;;;;;25.05;23.25;;;;;;;11.24;59.19;102371.19;5043840;28;20397;-73
2022/11/13 03:52:09;;;;;;;25.92;24.02;;;;;;;11.23;59.24;102374.91;5034204;28;20033;-73
2022/11/13 03:54:34;;;;;;;26.33;24.58;;;;;;;11.22;59.40;102368.69;5033580;28;20057;-74
2022/11/13 03:56:59;;;;;;;26.55;24.10;;;;;;;11.21;59.37;102367.03;5034234;28;20079;-74
2022/11/13 03:59:25;;;;;;;28.13;25.90;;;;;;;11.21;59.38;102363.47;5045317;28;20357;-73
2022/11/13 04:01:50;;;;;;;25.60;23.85;;;;;;;11.20;59.16;102351.81;5034311;28;20446;-73
2022/11/13 04:04:16;;;;;;;24.58;22.88;;;;;;;11.19;59.29;102362.88;5047925;28;20033;-73
2022/11/13 04:06:41;;;;;;;23.35;21.55;;;;;;;11.18;59.24;102356.59;5053794;28;20111;-73
2022/11/13 04:09:06;;;;;;;28.63;26.55;;;;;;;11.17;59.18;102354.94;5051983;28;20064;-73
2022/11/13 04:11:32;;;;;;;27.25;25.42;;;;;;;11.17;59.25;102356.81;5059932;28;20311;-74
2022/11/13 04:13:58;;;;;;;26.52;24.63;;;;;;;11.16;59.14;102358.69;5052787;28;20033;-71
2022/11/13 04:16:23;;;;;;;26.25;24.45;;;;;;;11.15;59.23;102367.00;5052891;28;20526;-73
2022/11/13 04:18:49;;;;;;;25.35;23.55;;;;;;;11.15;59.16;102364.31;5053351;28;20472;-73
2022/11/13 04:21:14;;;;;;;24.27;22.40;;;;;;;11.13;59.19;102367.19;5044954;28;20029;-73
2022/11/13 04:23:39;;;;;;;25.25;23.55;;;;;;;11.13;58.98;102367.19;5033045;28;20574;-73
2022/11/13 04:26:05;;;;;;;24.30;22.77;;;;;;;11.12;59.14;102365.56;5033757;28;20484;-73
2022/11/13 04:28:30;;;;;;;26.25;24.23;;;;;;;11.11;59.16;102354.94;5034112;28;20037;-73
2022/11/13 04:30:56;;;;;;;23.15;21.55;;;;;;;11.09;59.16;102355.16;5046939;28;20045;-73
2022/11/13 04:33:21;;;;;;;24.80;23.08;;;;;;;11.08;59.30;102350.75;5043834;28;20492;-73
2022/11/13 04:35:47;;;;;;;26.67;24.63;;;;;;;11.07;59.28;102354.53;5033057;28;20040;-73
2022/11/13 04:38:13;;;;;;;24.75;23.05;;;;;;;11.07;59.00;102342.88;5047811;28;20041;-73
2022/11/13 04:40:39;;;;;;;25.42;23.73;;;;;;;11.05;59.10;102351.19;5039741;28;20044;-73
2022/11/13 04:43:05;;;;;;;25.77;24.25;;;;;;;11.05;59.18;102351.19;5032287;28;20032;-73
2022/11/13 04:45:30;;;;;;;24.23;22.48;;;;;;;11.04;59.06;102352.22;5036113;28;20045;-73
2022/11/13 04:47:56;;;;;;;23.95;22.35;;;;;;;11.03;59.21;102351.38;5033156;28;20037;-73
2022/11/13 04:50:22;;;;;;;26.10;24.38;;;;;;;11.02;59.13;102352.44;5044586;28;20465;-75
2022/11/13 04:52:47;;;;;;;24.85;23.05;;;;;;;11.00;59.02;102354.50;5038481;28;20026;-73
2022/11/13 04:55:13;;;;;;;24.67;22.63;;;;;;;11.01;59.22;102355.31;5042012;28;20087;-73
2022/11/13 04:57:39;;;;;;;25.77;23.85;;;;;;;11.00;58.99;102356.38;5032579;28;20091;-73
2022/11/13 05:00:07;;;;;;;24.23;22.83;;;;;;;10.98;59.06;102347.63;5039363;28;20424;-73
2022/11/13 05:02:32;;;;;;;25.90;23.70;;;;;;;10.97;59.10;102357.63;5038369;28;20025;-73
2022/11/13 05:04:58;;;;;;;23.42;21.73;;;;;;;10.97;59.24;102364.91;5041013;28;20709;-73
2022/11/13 05:07:25;;;;;;;23.67;21.80;;;;;;;10.96;59.11;102357.81;5031888;28;20037;-74
2022/11/13 05:09:50;;;;;;;23.33;21.83;;;;;;;10.95;59.14;102350.75;5033974;28;20456;-73
2022/11/13 05:12:16;;;;;;;25.02;23.40;;;;;;;10.94;59.14;102341.00;5036069;28;20025;-73
2022/11/13 05:14:41;;;;;;;24.10;22.40;;;;;;;10.92;59.08;102346.59;5031656;28;20108;-73
2022/11/13 05:17:09;;;;;;;23.02;21.42;;;;;;;10.93;59.14;102347.41;5052100;28;20124;-72
2022/11/13 05:19:35;;;;;;;24.05;22.45;;;;;;;10.92;59.10;102340.34;5033223;28;20048;-72
2022/11/13 05:22:00;;;;;;;24.42;22.92;;;;;;;10.90;59.20;102342.44;5048964;28;20049;-72
2022/11/13 05:24:26;;;;;;;25.70;23.98;;;;;;;10.89;59.00;102341.59;5033069;28;20036;-72
2022/11/13 05:26:51;;;;;;;23.83;22.15;;;;;;;10.89;59.07;102348.88;5042295;28;20481;-72
2022/11/13 05:29:17;;;;;;;23.88;22.27;;;;;;;10.88;58.89;102336.38;5023471;28;20489;-71
2022/11/13 05:31:43;;;;;;;24.00;22.20;;;;;;;10.86;59.09;102333.06;5033646;28;20117;-71
2022/11/13 05:34:08;;;;;;;24.88;23.17;;;;;;;10.86;59.07;102339.31;5040384;28;20108;-72
2022/11/13 05:36:33;;;;;;;24.52;22.73;;;;;;;10.85;59.05;102334.94;5040518;28;20125;-72
2022/11/13 05:38:59;;;;;;;23.63;21.83;;;;;;;10.83;59.01;102327.03;5031066;28;20398;-72
2022/11/13 05:41:25;;;;;;;22.08;20.73;;;;;;;10.83;59.15;102332.44;5036727;28;20037;-74
2022/11/13 05:43:51;;;;;;;25.38;23.38;;;;;;;10.82;59.15;102322.66;5050353;28;20070;-73
2022/11/13 05:46:19;;;;;;;23.92;22.35;;;;;;;10.81;59.12;102314.78;5034561;28;20045;-71
2022/11/13 05:48:46;;;;;;;23.25;21.60;;;;;;;10.80;59.10;102319.31;5031293;28;20081;-73
2022/11/13 05:51:14;;;;;;;23.20;21.70;;;;;;;10.80;59.09;102316.63;5032013;28;20033;-73
2022/11/13 05:53:40;;;;;;;23.10;21.50;;;;;;;10.78;59.11;102301.66;5035021;28;20026;-72
2022/11/13 05:56:10;;;;;;;23.38;21.77;;;;;;;10.78;59.00;102307.06;5045117;28;20060;-74
2022/11/13 05:58:36;;;;;;;24.77;23.13;;;;;;;10.76;59.06;102312.69;5041822;28;20065;-72
2022/11/13 06:01:13;;;;;;;24.00;22.17;;;;;;;10.76;58.93;102304.56;5030538;28;20452;-72
2022/11/13 06:03:39;;;;;;;23.00;21.42;;;;;;;10.75;59.09;102297.47;5046975;28;20040;-72
2022/11/13 06:06:07;;;;;;;22.52;21.05;;;;;;;10.74;58.95;102300.41;5044335;28;20033;-73
2022/11/13 06:08:32;;;;;;;23.70;22.20;;;;;;;10.73;58.97;102299.56;5031265;28;20462;-75
2022/11/13 06:11:10;;;;;;;23.85;22.15;;;;;;;10.72;58.92;102297.91;5031753;28;20056;-73
2022/11/13 06:13:36;;;;;;;25.50;23.60;;;;;;;10.72;58.98;102297.06;5031885;28;20373;-74
2022/11/13 06:16:10;;;;;;;21.58;20.08;;;;;;;10.71;58.89;102293.56;5039987;28;20535;-73
2022/11/13 06:18:36;;;;;;;22.67;21.08;;;;;;;10.69;58.83;102283.97;5031000;28;20024;-74
2022/11/13 06:21:07;;;;;;;23.77;22.23;;;;;;;10.68;58.99;102291.22;5031349;28;20029;-73
2022/11/13 06:23:34;;;;;;;23.92;22.25;;;;;;;10.68;59.00;102295.81;5039300;28;20472;-74
2022/11/13 06:26:05;;;;;;;23.42;21.98;;;;;;;10.67;58.93;102288.75;5032265;28;20081;-73
2022/11/13 06:28:32;;;;;;;22.58;20.95;;;;;;;10.66;59.15;102287.06;5044112;28;20025;-74
2022/11/13 06:31:12;;;;;;;23.95;22.35;;;;;;;10.66;58.99;102281.66;5031373;28;20036;-71
2022/11/13 06:33:38;;;;;;;25.63;23.77;;;;;;;10.64;58.82;102281.06;5037757;28;20110;-71
2022/11/13 06:36:05;;;;;;;23.35;21.70;;;;;;;10.63;58.89;102272.09;5049245;28;20072;-74
2022/11/13 06:38:32;;;;;;;23.73;22.10;;;;;;;10.62;58.83;102273.16;5049416;28;20041;-75
2022/11/13 06:40:58;;;;;;;22.25;20.67;;;;;;;10.61;58.94;102269.63;5050954;28;20029;-72
2022/11/13 06:43:24;;;;;;;23.15;21.45;;;;;;;10.60;59.04;102273.34;5049380;28;20166;-71
2022/11/13 06:45:49;;;;;;;23.17;21.63;;;;;;;10.60;59.10;102277.91;5044094;28;20521;-71
2022/11/13 06:48:15;;;;;;;23.25;21.58;;;;;;;10.59;58.93;102276.28;5032174;28;20438;-72
2022/11/13 06:50:40;;;;;;;24.80;22.90;;;;;;;10.57;59.03;102268.34;5030728;28;20042;-73
2022/11/13 06:53:05;;;;;;;23.70;22.10;;;;;;;10.57;58.87;102270.22;5031025;28;20030;-73
2022/11/13 06:55:31;;;;;;;22.45;20.95;;;;;;;10.56;58.94;102272.09;5040359;28;20033;-72
2022/11/13 06:57:56;;;;;;;22.70;21.20;;;;;;;10.54;58.88;102274.19;5039763;28;20040;-71
2022/11/13 07:00:22;;;;;;;23.38;21.60;;;;;;;10.54;58.97;102273.34;5035377;28;20041;-73
2022/11/13 07:02:49;;;;;;;24.10;22.23;;;;;;;10.54;58.90;102276.88;5036508;28;20112;-71
2022/11/13 07:05:14;;;;;;;23.90;22.33;;;;;;;10.53;58.81;102274.38;5051655;28;20074;-73
2022/11/13 07:07:40;;;;;;;23.15;21.55;;;;;;;10.53;58.80;102277.06;5034643;28;20037;-71
2022/11/13 07:10:05;;;;;;;22.92;21.40;;;;;;;10.52;58.92;102275.41;5039662;28;20047;-74
2022/11/13 07:12:31;;;;;;;22.38;20.88;;;;;;;10.50;59.06;102280.19;5054207;28;20119;-74
2022/11/13 07:14:56;;;;;;;22.67;21.17;;;;;;;10.49;58.83;102282.06;5053756;28;20037;-73
2022/11/13 07:17:21;;;;;;;23.55;21.75;;;;;;;10.48;58.92;102277.72;5052828;28;20065;-71
2022/11/13 07:19:47;;;;;;;23.55;21.90;;;;;;;10.48;58.97;102276.84;5034372;28;20029;-71
2022/11/13 07:22:12;;;;;;;22.85;21.35;;;;;;;10.45;58.72;102275.41;5034774;28;20060;-71
2022/11/13 07:24:37;;;;;;;24.52;22.52;;;;;;;10.45;58.98;102275.41;5037252;28;20120;-74
2022/11/13 07:27:03;;;;;;;22.73;21.23;;;;;;;10.45;58.88;102274.56;5039649;28;20466;-74
2022/11/13 07:29:28;;;;;;;22.70;21.17;;;;;;;10.44;58.82;102272.91;5034245;28;20500;-73
2022/11/13 07:31:54;;;;;;;23.85;22.20;;;;;;;10.42;58.36;102269.56;5033910;28;20033;-71
2022/11/13 07:34:19;;;;;;;22.98;21.58;;;;;;;10.41;59.07;102274.16;5047387;28;20067;-71
2022/11/13 07:36:44;;;;;;;23.58;22.08;;;;;;;10.40;58.96;102273.31;5046333;28;20462;-71
2022/11/13 07:39:10;;;;;;;21.73;20.40;;;;;;;10.40;58.88;102272.47;5032956;28;20077;-71
2022/11/13 07:41:35;;;;;;;21.08;19.67;;;;;;;10.38;58.64;102278.09;5047501;28;20093;-71
2022/11/13 07:44:00;;;;;;;23.58;22.00;;;;;;;10.38;58.66;102277.25;5040604;28;20045;-74
2022/11/13 07:46:26;;;;;;;22.02;20.42;;;;;;;10.36;58.72;102269.34;5046780;28;20032;-73
2022/11/13 07:48:51;;;;;;;22.95;21.35;;;;;;;10.37;58.91;102262.09;5038397;28;20026;-71
2022/11/13 07:51:16;;;;;;;20.90;19.58;;;;;;;10.36;58.98;102260.44;5033227;28;20037;-73
2022/11/13 07:53:42;;;;;;;24.50;22.83;;;;;;;10.34;58.70;102260.63;5036813;28;20056;-72
2022/11/13 07:56:10;;;;;;;24.08;22.65;;;;;;;10.33;58.89;102267.06;5067116;28;20037;-75
2022/11/13 07:58:36;;;;;;;21.30;19.95;;;;;;;10.33;58.88;102266.22;5041756;28;20064;-72
2022/11/13 08:01:03;;;;;;;20.63;19.33;;;;;;;10.31;59.05;102263.75;5039374;28;20096;-72
2022/11/13 08:03:29;;;;;;;23.25;21.65;;;;;;;10.30;59.06;102267.44;5034172;28;20026;-73
2022/11/13 08:06:00;;;;;;;24.15;22.38;;;;;;;10.29;58.97;102260.41;5039028;28;20041;-71
2022/11/13 08:08:26;;;;;;;21.17;19.73;;;;;;;10.28;59.04;102269.56;5038713;28;20025;-72
2022/11/13 08:10:51;;;;;;;24.45;22.75;;;;;;;10.28;58.81;102269.56;5045471;28;20050;-74
2022/11/13 08:13:16;;;;;;;22.52;20.95;;;;;;;10.28;58.90;102276.78;5047820;28;20527;-71
2022/11/13 08:15:42;;;;;;;24.60;22.67;;;;;;;10.26;58.93;102271.59;5042751;28;20124;-74
2022/11/13 08:18:07;;;;;;;21.35;19.85;;;;;;;10.25;58.79;102272.59;5038769;28;20026;-74
2022/11/13 08:20:33;;;;;;;21.67;20.20;;;;;;;10.25;58.67;102263.69;5042354;28;20063;-74
2022/11/13 08:23:00;;;;;;;23.52;21.88;;;;;;;10.24;58.77;102257.44;5046775;28;20036;-75
2022/11/13 08:25:27;;;;;;;22.13;20.60;;;;;;;10.24;58.91;102253.91;5048651;28;20033;-74
2022/11/13 08:27:53;;;;;;;23.65;21.95;;;;;;;10.22;58.90;102251.41;5035177;28;20072;-74
2022/11/13 08:30:19;;;;;;;22.20;20.60;;;;;;;10.21;58.69;102255.16;5033310;28;20033;-74
2022/11/13 08:32:46;;;;;;;23.27;21.80;;;;;;;10.21;58.98;102252.47;5037668;28;20025;-72
2022/11/13 08:35:11;;;;;;;22.88;20.80;;;;;;;10.21;58.87;102249.75;5051384;28;20025;-72
2022/11/13 08:37:37;;;;;;;21.52;19.98;;;;;;;10.20;58.97;102248.06;5045047;28;20528;-74
2022/11/13 08:40:03;;;;;;;22.30;20.67;;;;;;;10.20;58.88;102248.06;5032851;28;20616;-73
2022/11/13 08:42:28;;;;;;;22.35;20.75;;;;;;;10.18;58.93;102248.31;5033362;28;20441;-72
2022/11/13 08:44:53;;;;;;;23.48;21.70;;;;;;;10.18;58.92;102245.59;5045994;28;20047;-74
2022/11/13 08:47:20;;;;;;;24.60;22.90;;;;;;;10.17;59.09;102245.78;5033085;28;20025;-73
2022/11/13 08:49:45;;;;;;;23.83;22.05;;;;;;;10.17;58.77;102253.88;5047340;28;20036;-74
2022/11/13 08:52:11;;;;;;;22.67;21.17;;;;;;;10.15;59.10;102242.44;5050895;28;20055;-74
2022/11/13 08:54:36;;;;;;;24.55;22.65;;;;;;;10.15;58.86;102250.56;5063130;28;20041;-74
2022/11/13 08:57:01;;;;;;;23.27;21.63;;;;;;;10.15;58.86;102247.84;5032453;28;20083;-74
2022/11/13 08:59:27;;;;;;;23.05;21.42;;;;;;;10.16;58.92;102246.84;5044210;28;20040;-74
2022/11/13 09:01:58;;;;;;;23.23;21.63;;;;;;;10.13;58.88;102245.38;5041917;28;20131;-72
2022/11/13 09:04:24;;;;;;;22.90;21.35;;;;;;;10.13;58.88;102239.97;5040490;28;20052;-71
2022/11/13 09:06:50;;;;;;;23.63;21.75;;;;;;;10.14;59.00;102235.41;5050118;28;20021;-72
2022/11/13 09:09:16;;;;;;;21.77;20.25;;;;;;;10.13;58.97;102234.56;5051080;28;20036;-73
2022/11/13 09:11:41;;;;;;;23.27;21.65;;;;;;;10.12;59.01;102243.69;5049117;28;20119;-74
2022/11/13 09:14:06;;;;;;;22.23;20.73;;;;;;;10.13;58.83;102244.53;5031604;28;20618;-74
2022/11/13 09:16:32;;;;;;;20.88;19.58;;;;;;;10.11;59.02;102235.81;5051289;28;20091;-73
2022/11/13 09:18:57;;;;;;;24.27;22.42;;;;;;;10.11;58.97;102242.03;5038410;28;20374;-74
2022/11/13 09:21:23;;;;;;;22.83;21.13;;;;;;;10.10;59.08;102240.34;5050211;28;20040;-74
2022/11/13 09:23:49;;;;;;;22.88;21.35;;;;;;;10.11;58.96;102238.50;5035684;28;20454;-73
2022/11/13 09:26:14;;;;;;;24.02;22.33;;;;;;;10.12;59.07;102234.75;5044322;28;20095;-72
2022/11/13 09:28:39;;;;;;;23.38;21.67;;;;;;;10.10;59.13;102240.34;5052261;28;20440;-72
2022/11/13 09:31:05;;;;;;;24.67;22.88;;;;;;;10.11;59.07;102230.41;5041613;28;20033;-72
2022/11/13 09:33:31;;;;;;;22.70;21.08;;;;;;;10.10;58.97;102234.13;5045532;28;20491;-72
2022/11/13 09:35:56;;;;;;;23.30;21.60;;;;;;;10.10;59.05;102232.25;5065754;28;20082;-72
2022/11/13 09:38:22;;;;;;;21.25;19.45;;;;;;;10.10;58.98;102231.44;5051769;28;20079;-72
2022/11/13 09:40:54;;;;;;;23.10;21.58;;;;;;;10.10;59.09;102229.56;5051012;28;20033;-73
2022/11/13 09:43:26;;;;;;;21.77;20.30;;;;;;;10.10;59.12;102234.13;5040317;28;20048;-74
2022/11/13 09:45:56;;;;;;;23.08;21.33;;;;;;;10.10;59.07;102236.84;5039316;28;20044;-74
2022/11/13 09:48:25;;;;;;;22.95;21.35;;;;;;;10.09;58.99;102236.00;5049304;28;20415;-72
2022/11/13 09:50:51;;;;;;;21.52;19.88;;;;;;;10.09;59.20;102227.91;5048053;28;20128;-73
2022/11/13 09:53:17;;;;;;;22.80;21.10;;;;;;;10.08;59.15;102225.41;5039915;28;20046;-72
2022/11/13 09:56:01;;;;;;;23.55;21.60;;;;;;;10.10;59.09;102226.03;5030255;28;20025;-74
2022/11/13 09:58:59;;;;;;;21.20;19.65;;;;;;;10.09;58.89;102222.50;5042485;28;20116;-72
2022/11/13 10:01:33;;;;;;;22.63;21.10;;;;;;;10.09;58.94;102227.06;5037534;28;20064;-72
2022/11/13 10:04:03;;;;;;;21.92;20.33;;;;;;;10.08;59.30;102220.84;5035479;28;20052;-73
2022/11/13 10:06:58;;;;;;;21.70;20.25;;;;;;;10.10;59.20;102228.72;5029336;28;20029;-73
2022/11/13 10:09:45;;;;;;;21.75;20.35;;;;;;;10.09;59.21;102218.97;5040235;28;20465;-73
2022/11/13 10:12:13;;;;;;;22.40;20.60;;;;;;;10.09;59.27;102217.09;5047683;28;20175;-74
2022/11/13 10:14:50;;;;;;;24.98;23.23;;;;;;;10.09;59.20;102217.09;5030661;28;20457;-73
2022/11/13 10:17:40;;;;;;;21.88;20.27;;;;;;;10.09;59.46;102211.72;5029888;28;20021;-73
2022/11/13 10:20:18;;;;;;;21.45;19.95;;;;;;;10.09;59.35;102213.56;5030152;28;20048;-74
2022/11/13 10:22:58;;;;;;;21.92;20.42;;;;;;;10.09;59.38;102208.19;5038098;28;20025;-75
2022/11/13 10:25:31;;;;;;;21.38;20.08;;;;;;;10.10;59.60;102207.13;5031822;28;20041;-74
2022/11/13 10:28:01;;;;;;;22.05;20.40;;;;;;;10.10;59.24;102202.56;5042554;28;20053;-74
2022/11/13 10:30:28;;;;;;;22.63;21.10;;;;;;;10.10;59.31;102190.94;5036986;28;20045;-74
2022/11/13 10:33:00;;;;;;;22.42;21.02;;;;;;;10.10;59.36;102190.94;5055272;28;20048;-74
2022/11/13 10:35:38;;;;;;;24.33;22.70;;;;;;;10.11;59.39;102198.00;5036575;28;20465;-74
2022/11/13 10:38:06;;;;;;;23.55;22.05;;;;;;;10.11;59.36;102192.63;5035451;28;20535;-74
2022/11/13 10:40:37;;;;;;;22.45;20.95;;;;;;;10.13;59.42;102177.00;5039382;28;20040;-74
2022/11/13 10:43:06;;;;;;;23.13;20.98;;;;;;;10.14;59.27;102176.00;5038771;28;20025;-73
2022/11/13 10:45:33;;;;;;;22.15;20.42;;;;;;;10.13;59.48;102172.47;5046156;28;20072;-75
2022/11/13 10:47:59;;;;;;;22.05;20.42;;;;;;;10.13;59.28;102172.47;5039581;28;20037;-73
2022/11/13 10:50:27;;;;;;;22.38;20.77;;;;;;;10.14;59.57;102163.31;5047381;28;20029;-75
2022/11/13 10:52:54;;;;;;;22.48;20.85;;;;;;;10.15;59.39;102161.44;5049695;28;20381;-75
2022/11/13 10:55:39;;;;;;;22.27;20.65;;;;;;;10.16;59.56;102165.84;5042083;28;20048;-74
2022/11/13 10:58:16;;;;;;;24.15;22.58;;;;;;;10.15;59.41;102156.91;5029829;28;20026;-74
2022/11/13 11:00:47;;;;;;;22.13;20.48;;;;;;;10.17;59.54;102148.59;5044801;28;20095;-74
2022/11/13 11:03:21;;;;;;;23.08;21.25;;;;;;;10.17;59.46;102144.00;5033148;28;20043;-73
2022/11/13 11:05:55;;;;;;;22.65;21.02;;;;;;;10.17;59.59;102146.72;5038087;28;20119;-73
2022/11/13 11:08:27;;;;;;;21.60;20.20;;;;;;;10.18;59.83;102144.84;5043979;28;20037;-74
2022/11/13 11:13:39;;;;;;;24.45;22.77;;;;;;;10.19;59.61;102138.41;5038027;28;20040;-74